sensor_id;sensor_type;location;lat;lon;timestamp;P1;durP1;ratioP1;P2;durP2;ratioP2
19482;SDS011;9882;51.166;6.992;2023-01-08T00:01:32;4.93;;;2.78;;
19482;SDS011;9882;51.166;6.992;2023-01-08T00:04:02;4.40;;;2.60;;
19482;SDS011;9882;51.166;6.992;2023-01-08T00:06:30;7.80;;;2.67;;
19482;SDS011;9882;51.166;6.992;2023-01-08T00:09:01;2.60;;;2.33;;
19482;SDS011;9882;51.166;6.992;2023-01-08T00:11:30;6.68;;;2.85;;
19482;SDS011;9882;51.166;6.992;2023-01-08T00:13:58;7.47;;;2.72;;
19482;SDS011;9882;51.166;6.992;2023-01-08T00:16:27;7.47;;;2.95;;
19482;SDS011;9882;51.166;6.992;2023-01-08T00:18:56;3.35;;;2.30;;
19482;SDS011;9882;51.166;6.992;2023-01-08T00:21:26;8.30;;;2.70;;
19482;SDS011;9882;51.166;6.992;2023-01-08T00:23:55;4.90;;;2.50;;
19482;SDS011;9882;51.166;6.992;2023-01-08T00:26:23;7.18;;;3.08;;
19482;SDS011;9882;51.166;6.992;2023-01-08T00:28:52;4.38;;;2.45;;
19482;SDS011;9882;51.166;6.992;2023-01-08T00:31:20;6.03;;;2.55;;
19482;SDS011;9882;51.166;6.992;2023-01-08T00:33:49;3.28;;;2.25;;
19482;SDS011;9882;51.166;6.992;2023-01-08T00:36:18;6.65;;;2.70;;
19482;SDS011;9882;51.166;6.992;2023-01-08T00:38:48;4.10;;;2.40;;
19482;SDS011;9882;51.166;6.992;2023-01-08T00:41:17;7.13;;;2.72;;
19482;SDS011;9882;51.166;6.992;2023-01-08T00:43:45;4.78;;;2.58;;
19482;SDS011;9882;51.166;6.992;2023-01-08T00:46:14;6.18;;;2.55;;
19482;SDS011;9882;51.166;6.992;2023-01-08T00:48:44;4.97;;;2.50;;
19482;SDS011;9882;51.166;6.992;2023-01-08T00:51:13;4.90;;;2.53;;
19482;SDS011;9882;51.166;6.992;2023-01-08T00:53:42;3.13;;;2.15;;
19482;SDS011;9882;51.166;6.992;2023-01-08T00:56:13;4.50;;;2.63;;
19482;SDS011;9882;51.166;6.992;2023-01-08T00:58:42;3.30;;;2.47;;
19482;SDS011;9882;51.166;6.992;2023-01-08T01:01:12;4.28;;;2.45;;
19482;SDS011;9882;51.166;6.992;2023-01-08T01:03:42;5.32;;;2.90;;
19482;SDS011;9882;51.166;6.992;2023-01-08T01:06:11;4.35;;;2.38;;
19482;SDS011;9882;51.166;6.992;2023-01-08T01:08:41;6.60;;;2.53;;
19482;SDS011;9882;51.166;6.992;2023-01-08T01:11:16;3.92;;;2.53;;
19482;SDS011;9882;51.166;6.992;2023-01-08T01:13:46;3.22;;;2.47;;
19482;SDS011;9882;51.166;6.992;2023-01-08T01:16:16;4.85;;;2.67;;
19482;SDS011;9882;51.166;6.992;2023-01-08T01:18:46;6.22;;;2.65;;
19482;SDS011;9882;51.166;6.992;2023-01-08T01:21:16;6.93;;;2.67;;
19482;SDS011;9882;51.166;6.992;2023-01-08T01:23:51;2.97;;;2.47;;
19482;SDS011;9882;51.166;6.992;2023-01-08T01:26:23;4.20;;;2.58;;
19482;SDS011;9882;51.166;6.992;2023-01-08T01:28:53;6.90;;;2.45;;
19482;SDS011;9882;51.166;6.992;2023-01-08T01:31:25;2.88;;;2.30;;
19482;SDS011;9882;51.166;6.992;2023-01-08T01:33:56;3.13;;;2.28;;
19482;SDS011;9882;51.166;6.992;2023-01-08T01:36:25;3.75;;;2.28;;
19482;SDS011;9882;51.166;6.992;2023-01-08T01:38:55;2.60;;;2.22;;
19482;SDS011;9882;51.166;6.992;2023-01-08T01:41:27;6.50;;;2.40;;
19482;SDS011;9882;51.166;6.992;2023-01-08T01:43:59;4.10;;;2.67;;
19482;SDS011;9882;51.166;6.992;2023-01-08T01:46:49;3.88;;;2.38;;
19482;SDS011;9882;51.166;6.992;2023-01-08T01:49:19;3.28;;;2.03;;
19482;SDS011;9882;51.166;6.992;2023-01-08T01:51:52;4.93;;;2.40;;
19482;SDS011;9882;51.166;6.992;2023-01-08T01:54:23;4.25;;;2.60;;
19482;SDS011;9882;51.166;6.992;2023-01-08T01:56:54;3.38;;;2.38;;
19482;SDS011;9882;51.166;6.992;2023-01-08T01:59:24;6.53;;;2.55;;
19482;SDS011;9882;51.166;6.992;2023-01-08T02:01:53;5.07;;;2.42;;
19482;SDS011;9882;51.166;6.992;2023-01-08T02:04:23;4.20;;;2.50;;
19482;SDS011;9882;51.166;6.992;2023-01-08T02:06:54;5.75;;;2.72;;
19482;SDS011;9882;51.166;6.992;2023-01-08T02:09:30;7.43;;;2.60;;
19482;SDS011;9882;51.166;6.992;2023-01-08T02:12:10;7.80;;;2.40;;
19482;SDS011;9882;51.166;6.992;2023-01-08T02:14:52;8.60;;;2.67;;
19482;SDS011;9882;51.166;6.992;2023-01-08T02:17:34;4.90;;;2.60;;
19482;SDS011;9882;51.166;6.992;2023-01-08T02:20:16;4.10;;;2.58;;
19482;SDS011;9882;51.166;6.992;2023-01-08T02:22:53;4.43;;;2.40;;
19482;SDS011;9882;51.166;6.992;2023-01-08T02:25:36;3.75;;;2.38;;
19482;SDS011;9882;51.166;6.992;2023-01-08T02:28:20;4.95;;;2.40;;
19482;SDS011;9882;51.166;6.992;2023-01-08T02:30:50;4.38;;;2.30;;
19482;SDS011;9882;51.166;6.992;2023-01-08T02:33:21;3.40;;;2.53;;
19482;SDS011;9882;51.166;6.992;2023-01-08T02:35:51;4.55;;;2.85;;
19482;SDS011;9882;51.166;6.992;2023-01-08T02:38:38;4.93;;;2.63;;
19482;SDS011;9882;51.166;6.992;2023-01-08T02:41:17;6.78;;;2.92;;
19482;SDS011;9882;51.166;6.992;2023-01-08T02:43:52;6.47;;;2.95;;
19482;SDS011;9882;51.166;6.992;2023-01-08T02:46:24;8.27;;;3.47;;
19482;SDS011;9882;51.166;6.992;2023-01-08T02:48:57;5.43;;;2.50;;
19482;SDS011;9882;51.166;6.992;2023-01-08T02:51:31;6.78;;;2.95;;
19482;SDS011;9882;51.166;6.992;2023-01-08T02:54:07;6.13;;;3.00;;
19482;SDS011;9882;51.166;6.992;2023-01-08T02:56:40;5.13;;;2.97;;
19482;SDS011;9882;51.166;6.992;2023-01-08T02:59:13;6.70;;;3.20;;
19482;SDS011;9882;51.166;6.992;2023-01-08T03:01:44;4.53;;;2.50;;
19482;SDS011;9882;51.166;6.992;2023-01-08T03:04:14;5.82;;;2.83;;
19482;SDS011;9882;51.166;6.992;2023-01-08T03:06:47;6.18;;;2.70;;
19482;SDS011;9882;51.166;6.992;2023-01-08T03:09:17;5.45;;;3.03;;
19482;SDS011;9882;51.166;6.992;2023-01-08T03:11:50;5.70;;;2.92;;
19482;SDS011;9882;51.166;6.992;2023-01-08T03:14:23;4.30;;;2.72;;
19482;SDS011;9882;51.166;6.992;2023-01-08T03:16:59;8.00;;;3.10;;
19482;SDS011;9882;51.166;6.992;2023-01-08T03:19:35;6.20;;;2.90;;
19482;SDS011;9882;51.166;6.992;2023-01-08T03:22:09;5.72;;;2.78;;
19482;SDS011;9882;51.166;6.992;2023-01-08T03:24:40;4.68;;;2.60;;
19482;SDS011;9882;51.166;6.992;2023-01-08T03:27:14;7.40;;;3.10;;
19482;SDS011;9882;51.166;6.992;2023-01-08T03:29:48;5.47;;;2.95;;
19482;SDS011;9882;51.166;6.992;2023-01-08T03:32:19;5.05;;;3.17;;
19482;SDS011;9882;51.166;6.992;2023-01-08T03:34:52;7.10;;;3.20;;
19482;SDS011;9882;51.166;6.992;2023-01-08T03:37:25;6.32;;;2.90;;
19482;SDS011;9882;51.166;6.992;2023-01-08T03:39:57;8.35;;;3.03;;
19482;SDS011;9882;51.166;6.992;2023-01-08T03:42:32;6.07;;;3.30;;
19482;SDS011;9882;51.166;6.992;2023-01-08T03:45:01;5.78;;;3.30;;
19482;SDS011;9882;51.166;6.992;2023-01-08T03:47:35;4.25;;;2.55;;
19482;SDS011;9882;51.166;6.992;2023-01-08T03:50:56;4.57;;;3.00;;
19482;SDS011;9882;51.166;6.992;2023-01-08T03:53:28;6.78;;;3.20;;
19482;SDS011;9882;51.166;6.992;2023-01-08T03:55:57;6.05;;;2.95;;
19482;SDS011;9882;51.166;6.992;2023-01-08T03:58:28;5.18;;;2.78;;
19482;SDS011;9882;51.166;6.992;2023-01-08T04:00:57;4.03;;;2.70;;
19482;SDS011;9882;51.166;6.992;2023-01-08T04:03:26;5.60;;;2.75;;
19482;SDS011;9882;51.166;6.992;2023-01-08T04:05:57;9.65;;;3.35;;
19482;SDS011;9882;51.166;6.992;2023-01-08T04:08:26;5.50;;;3.05;;
19482;SDS011;9882;51.166;6.992;2023-01-08T04:10:56;8.15;;;3.22;;
19482;SDS011;9882;51.166;6.992;2023-01-08T04:13:25;7.88;;;3.17;;
19482;SDS011;9882;51.166;6.992;2023-01-08T04:15:55;5.03;;;3.00;;
19482;SDS011;9882;51.166;6.992;2023-01-08T04:18:25;4.63;;;2.80;;
19482;SDS011;9882;51.166;6.992;2023-01-08T04:20:54;5.82;;;3.00;;
19482;SDS011;9882;51.166;6.992;2023-01-08T04:23:23;6.53;;;3.10;;
19482;SDS011;9882;51.166;6.992;2023-01-08T04:25:55;4.90;;;2.80;;
19482;SDS011;9882;51.166;6.992;2023-01-08T04:28:24;4.63;;;2.72;;
19482;SDS011;9882;51.166;6.992;2023-01-08T04:30:53;3.47;;;2.45;;
19482;SDS011;9882;51.166;6.992;2023-01-08T04:33:24;5.22;;;2.88;;
19482;SDS011;9882;51.166;6.992;2023-01-08T04:35:53;4.05;;;2.70;;
19482;SDS011;9882;51.166;6.992;2023-01-08T04:38:22;7.50;;;3.22;;
19482;SDS011;9882;51.166;6.992;2023-01-08T04:40:54;6.18;;;2.78;;
19482;SDS011;9882;51.166;6.992;2023-01-08T04:43:24;5.63;;;2.80;;
19482;SDS011;9882;51.166;6.992;2023-01-08T04:45:56;4.68;;;2.85;;
19482;SDS011;9882;51.166;6.992;2023-01-08T04:48:28;6.05;;;2.95;;
19482;SDS011;9882;51.166;6.992;2023-01-08T04:50:58;8.70;;;3.17;;
19482;SDS011;9882;51.166;6.992;2023-01-08T04:53:27;7.40;;;3.13;;
19482;SDS011;9882;51.166;6.992;2023-01-08T04:56:01;4.47;;;2.78;;
19482;SDS011;9882;51.166;6.992;2023-01-08T04:58:31;7.38;;;3.30;;
19482;SDS011;9882;51.166;6.992;2023-01-08T05:01:00;8.93;;;3.05;;
19482;SDS011;9882;51.166;6.992;2023-01-08T05:03:39;7.93;;;3.05;;
19482;SDS011;9882;51.166;6.992;2023-01-08T05:06:08;9.18;;;3.03;;
19482;SDS011;9882;51.166;6.992;2023-01-08T05:08:37;3.97;;;2.65;;
19482;SDS011;9882;51.166;6.992;2023-01-08T05:11:06;10.20;;;2.97;;
19482;SDS011;9882;51.166;6.992;2023-01-08T05:13:35;5.60;;;2.75;;
19482;SDS011;9882;51.166;6.992;2023-01-08T05:16:04;8.15;;;2.90;;
19482;SDS011;9882;51.166;6.992;2023-01-08T05:18:35;3.42;;;2.60;;
19482;SDS011;9882;51.166;6.992;2023-01-08T05:21:06;4.18;;;2.55;;
19482;SDS011;9882;51.166;6.992;2023-01-08T05:23:35;4.25;;;2.95;;
19482;SDS011;9882;51.166;6.992;2023-01-08T05:26:05;6.63;;;3.00;;
19482;SDS011;9882;51.166;6.992;2023-01-08T05:28:34;4.07;;;2.30;;
19482;SDS011;9882;51.166;6.992;2023-01-08T05:31:04;3.85;;;2.40;;
19482;SDS011;9882;51.166;6.992;2023-01-08T05:33:33;3.95;;;2.67;;
19482;SDS011;9882;51.166;6.992;2023-01-08T05:36:03;3.28;;;2.15;;
19482;SDS011;9882;51.166;6.992;2023-01-08T05:38:36;3.97;;;2.50;;
19482;SDS011;9882;51.166;6.992;2023-01-08T05:41:06;3.20;;;2.30;;
19482;SDS011;9882;51.166;6.992;2023-01-08T05:43:35;3.42;;;2.15;;
19482;SDS011;9882;51.166;6.992;2023-01-08T05:46:04;3.95;;;2.42;;
19482;SDS011;9882;51.166;6.992;2023-01-08T05:48:34;4.22;;;2.33;;
19482;SDS011;9882;51.166;6.992;2023-01-08T05:51:06;2.92;;;2.35;;
19482;SDS011;9882;51.166;6.992;2023-01-08T05:53:35;4.20;;;2.35;;
19482;SDS011;9882;51.166;6.992;2023-01-08T05:56:05;3.40;;;2.17;;
19482;SDS011;9882;51.166;6.992;2023-01-08T05:58:36;2.78;;;2.40;;
19482;SDS011;9882;51.166;6.992;2023-01-08T06:01:06;4.10;;;2.47;;
19482;SDS011;9882;51.166;6.992;2023-01-08T06:03:37;2.95;;;2.10;;
19482;SDS011;9882;51.166;6.992;2023-01-08T06:06:11;2.55;;;1.95;;
19482;SDS011;9882;51.166;6.992;2023-01-08T06:08:40;4.70;;;2.53;;
19482;SDS011;9882;51.166;6.992;2023-01-08T06:11:09;4.72;;;2.47;;
19482;SDS011;9882;51.166;6.992;2023-01-08T06:13:40;4.10;;;2.30;;
19482;SDS011;9882;51.166;6.992;2023-01-08T06:16:10;4.00;;;2.28;;
19482;SDS011;9882;51.166;6.992;2023-01-08T06:18:39;4.53;;;2.22;;
19482;SDS011;9882;51.166;6.992;2023-01-08T06:21:10;2.15;;;1.67;;
19482;SDS011;9882;51.166;6.992;2023-01-08T06:23:39;2.97;;;2.28;;
19482;SDS011;9882;51.166;6.992;2023-01-08T06:26:08;3.72;;;2.17;;
19482;SDS011;9882;51.166;6.992;2023-01-08T06:28:37;2.58;;;2.00;;
19482;SDS011;9882;51.166;6.992;2023-01-08T06:31:07;2.38;;;1.98;;
19482;SDS011;9882;51.166;6.992;2023-01-08T06:33:36;3.50;;;2.08;;
19482;SDS011;9882;51.166;6.992;2023-01-08T06:36:07;3.50;;;1.98;;
19482;SDS011;9882;51.166;6.992;2023-01-08T06:38:38;5.82;;;1.73;;
19482;SDS011;9882;51.166;6.992;2023-01-08T06:41:08;1.75;;;1.65;;
19482;SDS011;9882;51.166;6.992;2023-01-08T06:43:38;4.75;;;2.28;;
19482;SDS011;9882;51.166;6.992;2023-01-08T06:46:07;3.67;;;2.22;;
19482;SDS011;9882;51.166;6.992;2023-01-08T06:48:37;2.05;;;1.70;;
19482;SDS011;9882;51.166;6.992;2023-01-08T06:51:06;3.72;;;2.20;;
19482;SDS011;9882;51.166;6.992;2023-01-08T06:53:35;3.03;;;2.20;;
19482;SDS011;9882;51.166;6.992;2023-01-08T06:56:06;1.88;;;1.70;;
19482;SDS011;9882;51.166;6.992;2023-01-08T06:58:37;4.18;;;2.17;;
19482;SDS011;9882;51.166;6.992;2023-01-08T07:01:11;1.85;;;1.60;;
19482;SDS011;9882;51.166;6.992;2023-01-08T07:03:42;1.60;;;1.50;;
19482;SDS011;9882;51.166;6.992;2023-01-08T07:06:12;5.00;;;1.90;;
19482;SDS011;9882;51.166;6.992;2023-01-08T07:08:43;4.65;;;2.20;;
19482;SDS011;9882;51.166;6.992;2023-01-08T07:11:14;4.22;;;1.80;;
19482;SDS011;9882;51.166;6.992;2023-01-08T07:13:44;2.00;;;1.90;;
19482;SDS011;9882;51.166;6.992;2023-01-08T07:16:14;6.25;;;1.95;;
19482;SDS011;9882;51.166;6.992;2023-01-08T07:18:43;2.15;;;1.48;;
19482;SDS011;9882;51.166;6.992;2023-01-08T07:21:12;1.83;;;1.70;;
19482;SDS011;9882;51.166;6.992;2023-01-08T07:23:41;3.92;;;1.67;;
19482;SDS011;9882;51.166;6.992;2023-01-08T07:26:12;5.93;;;2.10;;
19482;SDS011;9882;51.166;6.992;2023-01-08T07:28:43;2.85;;;1.77;;
19482;SDS011;9882;51.166;6.992;2023-01-08T07:31:12;4.40;;;1.73;;
19482;SDS011;9882;51.166;6.992;2023-01-08T07:33:41;8.25;;;1.90;;
19482;SDS011;9882;51.166;6.992;2023-01-08T07:36:10;1.75;;;1.58;;
19482;SDS011;9882;51.166;6.992;2023-01-08T07:38:39;7.43;;;1.75;;
19482;SDS011;9882;51.166;6.992;2023-01-08T07:41:09;2.88;;;1.48;;
19482;SDS011;9882;51.166;6.992;2023-01-08T07:43:40;3.25;;;1.70;;
19482;SDS011;9882;51.166;6.992;2023-01-08T07:46:09;1.27;;;1.27;;
19482;SDS011;9882;51.166;6.992;2023-01-08T07:48:38;2.78;;;1.42;;
19482;SDS011;9882;51.166;6.992;2023-01-08T07:51:08;7.38;;;1.83;;
19482;SDS011;9882;51.166;6.992;2023-01-08T07:53:38;3.05;;;1.50;;
19482;SDS011;9882;51.166;6.992;2023-01-08T07:56:08;5.10;;;1.60;;
19482;SDS011;9882;51.166;6.992;2023-01-08T07:58:38;2.00;;;1.80;;
19482;SDS011;9882;51.166;6.992;2023-01-08T08:01:09;3.00;;;1.50;;
19482;SDS011;9882;51.166;6.992;2023-01-08T08:03:38;2.13;;;1.50;;
19482;SDS011;9882;51.166;6.992;2023-01-08T08:06:08;6.63;;;1.77;;
19482;SDS011;9882;51.166;6.992;2023-01-08T08:08:38;2.63;;;1.70;;
19482;SDS011;9882;51.166;6.992;2023-01-08T08:11:08;2.90;;;1.90;;
19482;SDS011;9882;51.166;6.992;2023-01-08T08:13:37;2.08;;;1.60;;
19482;SDS011;9882;51.166;6.992;2023-01-08T08:16:10;3.35;;;1.75;;
19482;SDS011;9882;51.166;6.992;2023-01-08T08:18:39;2.35;;;1.85;;
19482;SDS011;9882;51.166;6.992;2023-01-08T08:21:08;5.07;;;2.10;;
19482;SDS011;9882;51.166;6.992;2023-01-08T08:23:38;7.40;;;2.17;;
19482;SDS011;9882;51.166;6.992;2023-01-08T08:26:07;1.50;;;1.40;;
19482;SDS011;9882;51.166;6.992;2023-01-08T08:28:43;4.45;;;2.00;;
19482;SDS011;9882;51.166;6.992;2023-01-08T08:31:20;2.78;;;1.77;;
19482;SDS011;9882;51.166;6.992;2023-01-08T08:33:50;3.50;;;1.55;;
19482;SDS011;9882;51.166;6.992;2023-01-08T08:36:19;7.60;;;2.00;;
19482;SDS011;9882;51.166;6.992;2023-01-08T08:38:49;4.20;;;2.17;;
19482;SDS011;9882;51.166;6.992;2023-01-08T08:41:18;5.57;;;2.00;;
19482;SDS011;9882;51.166;6.992;2023-01-08T08:43:48;4.78;;;1.60;;
19482;SDS011;9882;51.166;6.992;2023-01-08T08:46:18;2.95;;;1.85;;
19482;SDS011;9882;51.166;6.992;2023-01-08T08:48:49;13.60;;;2.28;;
19482;SDS011;9882;51.166;6.992;2023-01-08T08:51:18;8.30;;;1.95;;
19482;SDS011;9882;51.166;6.992;2023-01-08T08:53:47;2.97;;;1.75;;
19482;SDS011;9882;51.166;6.992;2023-01-08T08:56:16;4.63;;;2.30;;
19482;SDS011;9882;51.166;6.992;2023-01-08T08:58:46;3.08;;;1.65;;
19482;SDS011;9882;51.166;6.992;2023-01-08T09:01:20;6.55;;;1.77;;
19482;SDS011;9882;51.166;6.992;2023-01-08T09:03:50;4.40;;;1.85;;
19482;SDS011;9882;51.166;6.992;2023-01-08T09:06:19;12.75;;;2.47;;
19482;SDS011;9882;51.166;6.992;2023-01-08T09:09:30;4.30;;;2.03;;
19482;SDS011;9882;51.166;6.992;2023-01-08T09:12:05;9.60;;;2.50;;
19482;SDS011;9882;51.166;6.992;2023-01-08T09:14:39;14.50;;;3.03;;
19482;SDS011;9882;51.166;6.992;2023-01-08T09:17:09;3.47;;;2.10;;
19482;SDS011;9882;51.166;6.992;2023-01-08T09:19:38;5.03;;;1.92;;
19482;SDS011;9882;51.166;6.992;2023-01-08T09:22:06;8.13;;;2.25;;
19482;SDS011;9882;51.166;6.992;2023-01-08T09:24:35;5.65;;;2.00;;
19482;SDS011;9882;51.166;6.992;2023-01-08T09:27:03;2.67;;;2.00;;
19482;SDS011;9882;51.166;6.992;2023-01-08T09:29:33;3.50;;;1.80;;
19482;SDS011;9882;51.166;6.992;2023-01-08T09:32:03;3.35;;;1.73;;
19482;SDS011;9882;51.166;6.992;2023-01-08T09:34:34;6.10;;;2.15;;
19482;SDS011;9882;51.166;6.992;2023-01-08T09:37:04;5.82;;;2.38;;
19482;SDS011;9882;51.166;6.992;2023-01-08T09:39:32;7.05;;;2.38;;
19482;SDS011;9882;51.166;6.992;2023-01-08T09:42:03;7.65;;;2.15;;
19482;SDS011;9882;51.166;6.992;2023-01-08T09:44:34;5.28;;;2.22;;
19482;SDS011;9882;51.166;6.992;2023-01-08T09:47:06;7.95;;;2.63;;
19482;SDS011;9882;51.166;6.992;2023-01-08T09:49:46;5.57;;;2.25;;
19482;SDS011;9882;51.166;6.992;2023-01-08T09:52:16;5.93;;;2.55;;
19482;SDS011;9882;51.166;6.992;2023-01-08T09:54:45;4.35;;;2.03;;
19482;SDS011;9882;51.166;6.992;2023-01-08T09:57:15;9.77;;;2.00;;
19482;SDS011;9882;51.166;6.992;2023-01-08T09:59:49;4.95;;;2.30;;
19482;SDS011;9882;51.166;6.992;2023-01-08T10:02:19;6.88;;;2.45;;
19482;SDS011;9882;51.166;6.992;2023-01-08T10:04:52;7.75;;;2.28;;
19482;SDS011;9882;51.166;6.992;2023-01-08T10:07:23;4.82;;;2.15;;
19482;SDS011;9882;51.166;6.992;2023-01-08T10:09:58;2.72;;;1.88;;
19482;SDS011;9882;51.166;6.992;2023-01-08T10:12:27;6.35;;;2.38;;
19482;SDS011;9882;51.166;6.992;2023-01-08T10:14:58;3.30;;;2.05;;
19482;SDS011;9882;51.166;6.992;2023-01-08T10:17:33;4.07;;;2.13;;
19482;SDS011;9882;51.166;6.992;2023-01-08T10:20:11;3.78;;;2.10;;
19482;SDS011;9882;51.166;6.992;2023-01-08T10:22:41;7.57;;;2.10;;
19482;SDS011;9882;51.166;6.992;2023-01-08T10:25:17;2.33;;;2.10;;
19482;SDS011;9882;51.166;6.992;2023-01-08T10:27:51;4.88;;;2.20;;
19482;SDS011;9882;51.166;6.992;2023-01-08T10:30:27;2.45;;;1.85;;
19482;SDS011;9882;51.166;6.992;2023-01-08T10:33:03;4.35;;;2.40;;
19482;SDS011;9882;51.166;6.992;2023-01-08T10:35:34;2.13;;;1.92;;
19482;SDS011;9882;51.166;6.992;2023-01-08T10:38:05;3.22;;;2.13;;
19482;SDS011;9882;51.166;6.992;2023-01-08T10:40:35;4.88;;;1.88;;
19482;SDS011;9882;51.166;6.992;2023-01-08T10:43:08;4.97;;;2.17;;
19482;SDS011;9882;51.166;6.992;2023-01-08T10:45:42;3.85;;;1.95;;
19482;SDS011;9882;51.166;6.992;2023-01-08T10:48:14;3.58;;;2.08;;
19482;SDS011;9882;51.166;6.992;2023-01-08T10:50:46;4.88;;;2.08;;
19482;SDS011;9882;51.166;6.992;2023-01-08T10:53:20;4.43;;;2.08;;
19482;SDS011;9882;51.166;6.992;2023-01-08T10:55:57;7.72;;;2.40;;
19482;SDS011;9882;51.166;6.992;2023-01-08T10:58:27;3.40;;;1.80;;
19482;SDS011;9882;51.166;6.992;2023-01-08T11:01:07;7.70;;;2.47;;
19482;SDS011;9882;51.166;6.992;2023-01-08T11:03:37;4.25;;;1.92;;
19482;SDS011;9882;51.166;6.992;2023-01-08T11:06:10;4.18;;;2.10;;
19482;SDS011;9882;51.166;6.992;2023-01-08T11:08:46;6.80;;;2.17;;
19482;SDS011;9882;51.166;6.992;2023-01-08T11:11:18;5.72;;;1.90;;
19482;SDS011;9882;51.166;6.992;2023-01-08T11:13:51;1.75;;;1.65;;
19482;SDS011;9882;51.166;6.992;2023-01-08T11:16:31;4.70;;;2.22;;
19482;SDS011;9882;51.166;6.992;2023-01-08T11:19:02;4.18;;;2.20;;
19482;SDS011;9882;51.166;6.992;2023-01-08T11:21:33;5.82;;;2.40;;
19482;SDS011;9882;51.166;6.992;2023-01-08T11:24:04;4.07;;;2.13;;
19482;SDS011;9882;51.166;6.992;2023-01-08T11:26:43;5.03;;;2.15;;
19482;SDS011;9882;51.166;6.992;2023-01-08T11:29:16;3.10;;;1.80;;
19482;SDS011;9882;51.166;6.992;2023-01-08T11:31:54;6.05;;;2.10;;
19482;SDS011;9882;51.166;6.992;2023-01-08T11:34:33;6.93;;;2.20;;
19482;SDS011;9882;51.166;6.992;2023-01-08T11:37:13;4.00;;;2.22;;
19482;SDS011;9882;51.166;6.992;2023-01-08T11:39:47;4.97;;;2.10;;
19482;SDS011;9882;51.166;6.992;2023-01-08T11:42:41;5.18;;;1.92;;
19482;SDS011;9882;51.166;6.992;2023-01-08T11:45:36;3.60;;;2.05;;
19482;SDS011;9882;51.166;6.992;2023-01-08T11:48:36;5.05;;;2.00;;
19482;SDS011;9882;51.166;6.992;2023-01-08T11:51:47;3.28;;;1.63;;
19482;SDS011;9882;51.166;6.992;2023-01-08T11:54:34;2.13;;;1.90;;
19482;SDS011;9882;51.166;6.992;2023-01-08T11:57:16;2.10;;;1.77;;
19482;SDS011;9882;51.166;6.992;2023-01-08T12:00:02;1.95;;;1.70;;
19482;SDS011;9882;51.166;6.992;2023-01-08T12:02:47;2.83;;;1.65;;
19482;SDS011;9882;51.166;6.992;2023-01-08T12:05:29;2.70;;;1.70;;
19482;SDS011;9882;51.166;6.992;2023-01-08T12:08:09;8.05;;;1.98;;
19482;SDS011;9882;51.166;6.992;2023-01-08T12:10:49;3.95;;;1.73;;
19482;SDS011;9882;51.166;6.992;2023-01-08T12:13:29;3.20;;;2.08;;
19482;SDS011;9882;51.166;6.992;2023-01-08T12:16:24;5.07;;;2.03;;
19482;SDS011;9882;51.166;6.992;2023-01-08T12:19:10;1.90;;;1.80;;
19482;SDS011;9882;51.166;6.992;2023-01-08T12:21:51;2.30;;;1.60;;
19482;SDS011;9882;51.166;6.992;2023-01-08T12:24:34;5.47;;;2.10;;
19482;SDS011;9882;51.166;6.992;2023-01-08T12:27:29;4.65;;;1.90;;
19482;SDS011;9882;51.166;6.992;2023-01-08T12:30:23;3.50;;;1.67;;
19482;SDS011;9882;51.166;6.992;2023-01-08T12:33:00;8.80;;;2.13;;
19482;SDS011;9882;51.166;6.992;2023-01-08T12:35:32;1.90;;;1.80;;
19482;SDS011;9882;51.166;6.992;2023-01-08T12:38:05;2.20;;;1.60;;
19482;SDS011;9882;51.166;6.992;2023-01-08T12:40:38;7.15;;;1.90;;
19482;SDS011;9882;51.166;6.992;2023-01-08T12:43:11;1.98;;;1.35;;
19482;SDS011;9882;51.166;6.992;2023-01-08T12:45:43;3.42;;;1.70;;
19482;SDS011;9882;51.166;6.992;2023-01-08T12:48:14;1.50;;;1.40;;
19482;SDS011;9882;51.166;6.992;2023-01-08T12:50:47;5.75;;;1.33;;
19482;SDS011;9882;51.166;6.992;2023-01-08T12:53:25;1.52;;;1.40;;
19482;SDS011;9882;51.166;6.992;2023-01-08T12:56:03;1.67;;;1.52;;
19482;SDS011;9882;51.166;6.992;2023-01-08T12:58:49;1.50;;;1.40;;
19482;SDS011;9882;51.166;6.992;2023-01-08T13:01:30;2.83;;;1.70;;
19482;SDS011;9882;51.166;6.992;2023-01-08T13:04:07;2.90;;;1.45;;
19482;SDS011;9882;51.166;6.992;2023-01-08T13:06:37;3.13;;;1.88;;
19482;SDS011;9882;51.166;6.992;2023-01-08T13:09:18;2.35;;;1.58;;
19482;SDS011;9882;51.166;6.992;2023-01-08T13:11:51;1.40;;;1.30;;
19482;SDS011;9882;51.166;6.992;2023-01-08T13:14:26;1.40;;;1.30;;
19482;SDS011;9882;51.166;6.992;2023-01-08T13:16:59;1.75;;;1.60;;
19482;SDS011;9882;51.166;6.992;2023-01-08T13:19:32;5.70;;;2.83;;
19482;SDS011;9882;51.166;6.992;2023-01-08T13:22:15;1.70;;;1.60;;
19482;SDS011;9882;51.166;6.992;2023-01-08T13:25:07;1.27;;;1.25;;
19482;SDS011;9882;51.166;6.992;2023-01-08T13:27:40;2.97;;;1.80;;
19482;SDS011;9882;51.166;6.992;2023-01-08T13:33:01;2.08;;;1.75;;
19482;SDS011;9882;51.166;6.992;2023-01-08T13:35:30;1.70;;;1.60;;
19482;SDS011;9882;51.166;6.992;2023-01-08T13:38:13;1.73;;;1.40;;
19482;SDS011;9882;51.166;6.992;2023-01-08T13:40:49;1.65;;;1.55;;
19482;SDS011;9882;51.166;6.992;2023-01-08T13:43:23;2.65;;;1.52;;
19482;SDS011;9882;51.166;6.992;2023-01-08T13:46:07;2.15;;;1.55;;
19482;SDS011;9882;51.166;6.992;2023-01-08T13:48:49;3.53;;;1.80;;
19482;SDS011;9882;51.166;6.992;2023-01-08T13:54:16;2.65;;;1.80;;
19482;SDS011;9882;51.166;6.992;2023-01-08T13:56:50;2.13;;;1.60;;
19482;SDS011;9882;51.166;6.992;2023-01-08T13:59:30;2.40;;;1.48;;
19482;SDS011;9882;51.166;6.992;2023-01-08T14:02:16;1.98;;;1.38;;
19482;SDS011;9882;51.166;6.992;2023-01-08T14:04:50;3.20;;;1.70;;
19482;SDS011;9882;51.166;6.992;2023-01-08T14:07:19;2.92;;;1.58;;
19482;SDS011;9882;51.166;6.992;2023-01-08T14:09:49;2.15;;;1.50;;
19482;SDS011;9882;51.166;6.992;2023-01-08T14:12:18;2.17;;;1.52;;
19482;SDS011;9882;51.166;6.992;2023-01-08T14:14:49;1.20;;;1.08;;
19482;SDS011;9882;51.166;6.992;2023-01-08T14:17:22;5.15;;;1.65;;
19482;SDS011;9882;51.166;6.992;2023-01-08T14:19:55;1.88;;;1.38;;
19482;SDS011;9882;51.166;6.992;2023-01-08T14:22:26;1.75;;;1.40;;
19482;SDS011;9882;51.166;6.992;2023-01-08T14:24:59;1.55;;;1.40;;
19482;SDS011;9882;51.166;6.992;2023-01-08T14:27:30;1.35;;;1.25;;
19482;SDS011;9882;51.166;6.992;2023-01-08T14:29:59;1.67;;;1.20;;
19482;SDS011;9882;51.166;6.992;2023-01-08T14:32:29;1.45;;;1.35;;
19482;SDS011;9882;51.166;6.992;2023-01-08T14:34:58;2.13;;;1.58;;
19482;SDS011;9882;51.166;6.992;2023-01-08T14:37:27;4.32;;;1.40;;
19482;SDS011;9882;51.166;6.992;2023-01-08T14:39:56;3.13;;;1.20;;
19482;SDS011;9882;51.166;6.992;2023-01-08T14:42:27;1.98;;;1.55;;
19482;SDS011;9882;51.166;6.992;2023-01-08T14:45:14;4.60;;;1.40;;
19482;SDS011;9882;51.166;6.992;2023-01-08T14:47:48;3.38;;;1.60;;
19482;SDS011;9882;51.166;6.992;2023-01-08T14:50:19;2.97;;;1.33;;
19482;SDS011;9882;51.166;6.992;2023-01-08T14:52:51;1.75;;;1.40;;
19482;SDS011;9882;51.166;6.992;2023-01-08T14:55:24;9.57;;;2.38;;
19482;SDS011;9882;51.166;6.992;2023-01-08T14:57:54;3.78;;;1.63;;
19482;SDS011;9882;51.166;6.992;2023-01-08T15:00:24;3.63;;;2.15;;
19482;SDS011;9882;51.166;6.992;2023-01-08T15:02:56;3.33;;;1.90;;
19482;SDS011;9882;51.166;6.992;2023-01-08T15:05:25;3.30;;;2.17;;
19482;SDS011;9882;51.166;6.992;2023-01-08T15:07:57;7.40;;;2.30;;
19482;SDS011;9882;51.166;6.992;2023-01-08T15:10:38;2.00;;;1.80;;
19482;SDS011;9882;51.166;6.992;2023-01-08T15:13:11;6.30;;;2.20;;
19482;SDS011;9882;51.166;6.992;2023-01-08T15:15:53;6.03;;;2.05;;
19482;SDS011;9882;51.166;6.992;2023-01-08T15:18:25;3.67;;;1.77;;
19482;SDS011;9882;51.166;6.992;2023-01-08T15:20:54;7.85;;;2.50;;
19482;SDS011;9882;51.166;6.992;2023-01-08T15:23:23;4.65;;;2.33;;
19482;SDS011;9882;51.166;6.992;2023-01-08T15:25:55;2.35;;;1.95;;
19482;SDS011;9882;51.166;6.992;2023-01-08T15:28:23;5.28;;;2.20;;
19482;SDS011;9882;51.166;6.992;2023-01-08T15:30:52;5.80;;;2.00;;
19482;SDS011;9882;51.166;6.992;2023-01-08T15:33:23;2.95;;;1.73;;
19482;SDS011;9882;51.166;6.992;2023-01-08T15:35:54;4.55;;;2.03;;
19482;SDS011;9882;51.166;6.992;2023-01-08T15:38:23;3.22;;;1.58;;
19482;SDS011;9882;51.166;6.992;2023-01-08T15:40:52;4.30;;;1.92;;